Time;durP1;ratioP1;P1;durP2;ratioP2;P2;SDS_P1;SDS_P2;PMS_P1;PMS_P2;Temp;Humidity;BMP_temperature;BMP_pressure;BME280_temperature;BME280_humidity;BME280_pressure;Samples;Min_cycle;Max_cycle;Signal;HPM_P1;HPM_P2
2023/08/10 00:01:44;;;;;;;6.60;2.97;;;;;;;20.34;55.09;98865.06;5033624;28;20055;-44
2023/08/10 00:04:09;;;;;;;8.70;2.30;;;;;;;20.43;54.68;98854.72;5033580;28;20036;-44
2023/08/10 00:06:35;;;;;;;5.70;2.50;;;;;;;20.70;54.67;98855.38;5033567;28;20444;-44
2023/08/10 00:09:00;;;;;;;7.07;2.50;;;;;;;21.02;54.04;98861.59;5051528;28;20074;-44
2023/08/10 00:11:27;;;;;;;9.77;2.70;;;;;;;21.17;53.51;98852.78;5033300;28;20099;-44
2023/08/10 00:13:52;;;;;;;6.47;2.40;;;;;;;21.34;52.81;98858.69;5033776;28;20025;-44
2023/08/10 00:16:18;;;;;;;11.10;2.70;;;;;;;21.48;52.58;98861.66;5051392;28;20017;-44
2023/08/10 00:18:44;;;;;;;9.43;2.83;;;;;;;21.63;51.80;98866.19;5051333;28;20037;-44
2023/08/10 00:21:10;;;;;;;15.18;2.53;;;;;;;21.62;51.53;98861.91;5051313;28;20032;-44
2023/08/10 00:23:36;;;;;;;6.47;1.95;;;;;;;21.39;51.32;98860.53;5051281;28;20025;-44
2023/08/10 00:26:03;;;;;;;9.05;2.47;;;;;;;21.12;52.14;98859.72;5051301;28;20150;-44
2023/08/10 00:28:28;;;;;;;8.50;2.58;;;;;;;20.93;52.73;98869.31;5051183;28;20023;-44
2023/08/10 00:30:54;;;;;;;11.70;4.20;;;;;;;20.98;52.96;98869.31;5051226;28;20025;-44
2023/08/10 00:33:20;;;;;;;11.13;3.05;;;;;;;21.11;52.70;98863.47;5051140;28;20063;-44
2023/08/10 00:35:46;;;;;;;6.50;2.38;;;;;;;21.12;52.45;98870.41;5033324;28;20106;-44
2023/08/10 00:38:12;;;;;;;10.60;3.08;;;;;;;20.93;52.77;98861.31;5033296;28;20024;-44
2023/08/10 00:40:37;;;;;;;3.45;2.60;;;;;;;20.71;53.35;98869.53;5033230;28;20044;-44
2023/08/10 00:43:03;;;;;;;9.52;2.50;;;;;;;20.46;53.91;98870.97;5033119;28;20052;-44
2023/08/10 00:45:30;;;;;;;3.33;1.98;;;;;;;20.59;54.62;98876.97;5051304;28;20544;-44
2023/08/10 00:47:56;;;;;;;7.22;2.70;;;;;;;20.70;53.69;98871.38;5051344;28;20136;-45
2023/08/10 00:50:23;;;;;;;6.07;2.50;;;;;;;20.62;53.73;98871.88;5051062;28;20031;-44
2023/08/10 00:52:49;;;;;;;4.60;2.22;;;;;;;20.52;54.22;98877.16;5033146;28;20041;-44
2023/08/10 00:55:14;;;;;;;11.95;4.30;;;;;;;20.61;54.33;98880.97;5054188;28;20061;-44
2023/08/10 00:57:40;;;;;;;8.20;2.60;;;;;;;20.51;54.32;98872.91;5054626;28;20024;-44
2023/08/10 01:00:10;;;;;;;4.95;2.22;;;;;;;20.29;54.67;98873.84;5054521;28;20064;-44
2023/08/10 01:02:38;;;;;;;7.70;2.50;;;;;;;20.08;55.17;98880.13;5054509;28;20028;-44
2023/08/10 01:05:05;;;;;;;5.38;2.08;;;;;;;20.02;55.38;98876.66;5036674;28;20025;-44
2023/08/10 01:07:56;;;;;;;7.18;2.10;;;;;;;20.05;55.62;98881.44;5054785;28;20029;-44
2023/08/10 01:11:09;;;;;;;3.78;2.13;;;;;;;20.06;55.53;98896.41;5036566;28;20033;-44
2023/08/10 01:13:52;;;;;;;8.95;2.55;;;;;;;20.09;56.07;98892.41;4973440;28;20413;-44
2023/08/10 01:16:21;;;;;;;11.93;2.83;;;;;;;20.29;55.46;98899.72;4957135;28;20030;-44
2023/08/10 01:18:49;;;;;;;5.05;2.30;;;;;;;20.33;55.19;98903.47;4973351;28;20059;-44
2023/08/10 01:21:43;;;;;;;8.68;2.35;;;;;;;20.08;55.59;98901.44;4957049;28;20521;-44
2023/08/10 01:24:27;;;;;;;5.40;1.98;;;;;;;19.91;56.10;98891.75;4956908;28;20141;-44
2023/08/10 01:26:55;;;;;;;7.00;2.03;;;;;;;19.58;56.81;98900.81;4956958;28;20114;-44
2023/08/10 01:29:22;;;;;;;6.82;2.88;;;;;;;19.30;57.78;98907.22;4973024;28;20489;-44
2023/08/10 01:31:48;;;;;;;2.40;2.13;;;;;;;19.16;58.12;98910.28;4956829;28;20031;-44
2023/08/10 01:34:14;;;;;;;6.28;1.90;;;;;;;19.17;58.26;98911.06;4973098;28;20070;-44
2023/08/10 01:36:40;;;;;;;3.30;2.03;;;;;;;19.26;58.27;98903.47;4972971;28;20413;-44
2023/08/10 01:39:06;;;;;;;10.50;2.80;;;;;;;19.25;58.30;98915.13;4956720;28;20031;-44
2023/08/10 01:41:32;;;;;;;7.80;2.72;;;;;;;19.43;58.36;98919.31;4956681;28;20031;-44
2023/08/10 01:43:58;;;;;;;11.48;4.68;;;;;;;19.67;58.33;98922.44;4972690;28;20051;-44
2023/08/10 01:46:27;;;;;;;5.85;2.05;;;;;;;19.86;57.45;98920.22;4956542;28;20062;-44
2023/08/10 01:48:56;;;;;;;5.50;2.00;;;;;;;19.90;57.11;98927.44;4964052;28;20029;-44
2023/08/10 01:51:25;;;;;;;8.10;3.08;;;;;;;19.79;57.10;98923.09;5012596;28;20034;-44
2023/08/10 01:53:51;;;;;;;9.32;2.80;;;;;;;19.71;57.16;98919.03;5013845;28;20108;-44
2023/08/10 01:56:18;;;;;;;7.28;2.35;;;;;;;19.62;57.41;98922.38;5012477;28;20116;-44
2023/08/10 01:58:44;;;;;;;7.03;2.42;;;;;;;19.52;57.68;98921.25;5013992;28;20034;-44
2023/08/10 02:01:10;;;;;;;8.63;2.30;;;;;;;19.44;57.94;98920.94;5012376;28;20030;-44
2023/08/10 02:03:36;;;;;;;8.52;2.67;;;;;;;19.23;58.33;98923.38;5012306;28;20053;-44
2023/08/10 02:06:02;;;;;;;5.28;2.53;;;;;;;19.13;58.85;98920.59;5011247;28;20053;-44
2023/08/10 02:08:28;;;;;;;7.68;2.38;;;;;;;19.18;59.05;98914.56;5012325;28;20069;-44
2023/08/10 02:10:54;;;;;;;6.05;2.80;;;;;;;19.19;59.07;98918.81;5015849;28;20054;-44
2023/08/10 02:13:19;;;;;;;5.47;2.70;;;;;;;19.14;59.15;98919.56;5031978;28;20032;-44
2023/08/10 02:15:45;;;;;;;7.07;2.72;;;;;;;19.01;59.16;98915.41;5031869;28;20557;-44
2023/08/10 02:18:14;;;;;;;5.30;2.90;;;;;;;19.06;59.58;98918.16;5033201;28;20553;-44
2023/08/10 02:20:40;;;;;;;8.68;2.60;;;;;;;18.99;59.45;98914.88;5033122;28;20041;-44
2023/08/10 02:23:05;;;;;;;6.70;2.50;;;;;;;18.81;59.98;98909.88;5032940;28;20021;-44
2023/08/10 02:25:31;;;;;;;3.78;2.20;;;;;;;18.59;60.62;98909.84;5033048;28;20028;-44
2023/08/10 02:27:57;;;;;;;8.50;3.05;;;;;;;18.61;61.03;98913.88;5031688;28;20514;-44
2023/08/10 02:30:22;;;;;;;5.53;2.28;;;;;;;18.65;60.94;98916.84;5032933;28;20025;-44
2023/08/10 02:32:49;;;;;;;5.30;2.40;;;;;;;18.73;60.96;98911.91;5032916;28;20037;-44
2023/08/10 02:35:14;;;;;;;5.80;2.35;;;;;;;18.83;60.62;98913.09;5032884;28;20025;-44
2023/08/10 02:37:41;;;;;;;4.25;2.88;;;;;;;18.73;60.75;98909.25;5033053;28;20376;-44
2023/08/10 02:40:10;;;;;;;9.25;2.83;;;;;;;18.53;61.13;98914.28;5032716;28;20369;-44
2023/08/10 02:42:35;;;;;;;8.52;2.20;;;;;;;18.45;61.53;98915.56;5032745;28;20076;-44
2023/08/10 02:45:02;;;;;;;3.83;3.10;;;;;;;18.39;61.91;98916.53;5032619;28;20029;-44
2023/08/10 02:47:27;;;;;;;5.90;3.00;;;;;;;18.25;62.31;98910.75;5032624;28;20458;-44
2023/08/10 02:49:53;;;;;;;9.13;2.50;;;;;;;18.08;62.81;98907.31;5032637;28;20025;-44
2023/08/10 02:52:19;;;;;;;5.72;2.55;;;;;;;17.95;63.16;98908.47;5031254;28;20487;-44
2023/08/10 02:54:45;;;;;;;4.70;2.50;;;;;;;17.84;63.71;98912.00;5032478;28;20088;-44
2023/08/10 02:57:11;;;;;;;5.68;2.60;;;;;;;17.89;63.79;98918.22;5032722;28;20025;-44
2023/08/10 02:59:37;;;;;;;4.65;3.30;;;;;;;18.00;63.65;98921.03;5031182;28;20438;-44
2023/08/10 03:02:03;;;;;;;5.32;2.63;;;;;;;18.02;63.52;98918.91;5031048;28;20402;-44
2023/08/10 03:04:29;;;;;;;12.10;10.90;;;;;;;17.90;63.78;98930.44;5032333;28;20063;-44
2023/08/10 03:06:55;;;;;;;7.20;3.30;;;;;;;17.84;64.16;98931.41;5031014;28;20033;-44
2023/08/10 03:09:20;;;;;;;5.10;2.85;;;;;;;17.83;64.43;98936.91;5032279;28;20500;-44
2023/08/10 03:11:46;;;;;;;7.93;2.70;;;;;;;17.71;64.59;98942.31;5030843;28;20052;-44
2023/08/10 03:14:12;;;;;;;3.75;2.30;;;;;;;17.64;64.91;98949.63;5032184;28;20033;-44
2023/08/10 03:16:38;;;;;;;6.20;3.03;;;;;;;17.59;65.15;98947.69;5030486;28;20488;-44
2023/08/10 03:19:03;;;;;;;6.68;2.95;;;;;;;17.55;65.43;98947.34;5030848;28;20099;-44
2023/08/10 03:21:29;;;;;;;6.00;2.38;;;;;;;17.60;65.43;98946.63;5030734;28;20028;-44
2023/08/10 03:23:55;;;;;;;6.32;2.50;;;;;;;17.60;65.46;98949.28;5030662;28;20034;-44
2023/08/10 03:26:21;;;;;;;4.70;2.42;;;;;;;17.57;65.74;98941.81;5030724;28;20021;-44
2023/08/10 03:28:47;;;;;;;4.47;2.40;;;;;;;17.52;66.02;98945.16;5031973;28;20612;-46
2023/08/10 03:31:13;;;;;;;4.35;3.10;;;;;;;17.43;66.19;98946.63;5032173;28;20398;-46
2023/08/10 03:33:40;;;;;;;6.60;2.92;;;;;;;17.37;66.62;98948.38;5030740;28;20387;-46
2023/08/10 03:36:06;;;;;;;8.10;5.15;;;;;;;17.32;66.68;98948.25;5030594;28;20033;-46
2023/08/10 03:38:32;;;;;;;7.20;3.20;;;;;;;17.25;67.01;98938.88;5031822;28;20022;-46
2023/08/10 03:40:58;;;;;;;7.32;3.17;;;;;;;17.22;67.20;98950.72;5030509;28;20411;-47
2023/08/10 03:43:23;;;;;;;12.48;2.95;;;;;;;17.24;67.14;98953.94;5031742;28;20398;-47
2023/08/10 03:45:49;;;;;;;3.38;2.30;;;;;;;17.36;66.98;98954.72;5030416;28;20025;-46
2023/08/10 03:48:15;;;;;;;8.70;2.78;;;;;;;17.47;66.74;98946.94;5031754;28;20033;-46
2023/08/10 03:50:40;;;;;;;5.47;2.67;;;;;;;17.60;66.31;98957.25;5030433;28;20373;-46
2023/08/10 03:53:06;;;;;;;17.23;3.95;;;;;;;17.67;66.17;98957.91;5030459;28;20057;-47
2023/08/10 03:55:32;;;;;;;8.45;3.17;;;;;;;17.78;65.98;98964.97;5030421;28;20487;-46
2023/08/10 03:57:58;;;;;;;9.23;3.08;;;;;;;17.90;65.43;98969.47;5031627;28;20570;-47
2023/08/10 04:00:23;;;;;;;10.77;3.08;;;;;;;18.05;65.47;98966.22;5031662;28;20036;-47
2023/08/10 04:02:49;;;;;;;8.75;3.28;;;;;;;18.18;65.04;98963.25;5031650;28;20491;-47
2023/08/10 04:05:15;;;;;;;6.38;2.88;;;;;;;18.16;64.25;98962.69;5030217;28;20025;-47
2023/08/10 04:07:40;;;;;;;5.60;3.30;;;;;;;17.94;64.26;98957.31;5031574;28;20250;-46
2023/08/10 04:10:07;;;;;;;5.90;2.53;;;;;;;17.71;64.95;98947.63;5031582;28;20076;-46
2023/08/10 04:12:34;;;;;;;8.07;3.40;;;;;;;17.48;66.11;98946.69;5048734;28;20095;-46
2023/08/10 04:15:00;;;;;;;9.82;2.95;;;;;;;17.28;67.02;98946.34;5033728;28;20398;-46
2023/08/10 04:17:26;;;;;;;8.52;4.05;;;;;;;17.13;67.48;98944.22;5051400;28;20028;-46
2023/08/10 04:19:52;;;;;;;6.50;3.25;;;;;;;17.00;68.31;98945.28;5051341;28;20411;-46
2023/08/10 04:22:18;;;;;;;8.73;3.70;;;;;;;16.89;68.68;98951.44;5051217;28;20097;-47
2023/08/10 04:24:43;;;;;;;12.57;3.53;;;;;;;16.89;68.92;98944.28;5033356;28;20115;-46
2023/08/10 04:27:09;;;;;;;11.02;3.53;;;;;;;16.89;68.89;98935.53;5033311;28;20025;-46
2023/08/10 04:29:35;;;;;;;8.68;4.05;;;;;;;16.92;69.26;98938.53;5053503;28;20066;-46
2023/08/10 04:32:01;;;;;;;5.57;3.03;;;;;;;16.93;69.29;98945.41;5055107;28;20092;-46
2023/08/10 04:34:26;;;;;;;7.68;2.60;;;;;;;16.95;69.14;98935.38;5037113;28;20114;-46
2023/08/10 04:36:52;;;;;;;6.63;3.03;;;;;;;16.92;69.36;98933.22;5054977;28;20502;-46
2023/08/10 04:39:18;;;;;;;7.38;3.17;;;;;;;16.87;69.67;98932.31;5054904;28;20017;-46
2023/08/10 04:41:43;;;;;;;4.78;3.33;;;;;;;16.84;69.82;98923.00;5036922;28;20032;-46
2023/08/10 04:44:09;;;;;;;5.63;3.15;;;;;;;16.81;70.07;98912.84;5054873;28;20502;-46
2023/08/10 04:46:35;;;;;;;16.77;6.75;;;;;;;16.85;70.24;98919.28;5036848;28;20056;-46
2023/08/10 04:49:01;;;;;;;16.65;4.60;;;;;;;16.85;70.16;98919.28;5054817;28;20059;-46
2023/08/10 04:51:27;;;;;;;12.63;3.72;;;;;;;16.88;69.86;98916.19;5036868;28;20028;-47
2023/08/10 04:53:52;;;;;;;8.35;3.45;;;;;;;16.94;69.81;98919.72;5054915;28;20060;-46
2023/08/10 04:56:18;;;;;;;6.07;3.15;;;;;;;17.05;69.61;98932.13;5020319;28;20494;-46
2023/08/10 04:58:44;;;;;;;10.80;3.45;;;;;;;17.34;69.47;98937.41;5036740;28;20417;-46
2023/08/10 05:01:12;;;;;;;11.60;3.42;;;;;;;18.31;67.39;98940.84;5054629;28;20047;-46
2023/08/10 05:03:39;;;;;;;10.48;3.05;;;;;;;19.46;62.84;98922.28;5054436;28;20106;-46
2023/08/10 05:06:05;;;;;;;33.72;4.63;;;;;;;20.44;60.11;98913.09;5054427;28;20632;-46
2023/08/10 05:08:31;;;;;;;8.02;3.05;;;;;;;21.16;56.91;98921.41;5036694;28;20104;-47
2023/08/10 05:10:58;;;;;;;13.88;3.33;;;;;;;21.03;55.45;98920.03;5054063;28;20045;-46
2023/08/10 05:13:24;;;;;;;8.98;3.78;;;;;;;20.49;56.35;98915.00;5036623;28;20017;-46
2023/08/10 05:15:50;;;;;;;7.03;3.13;;;;;;;19.89;58.05;98919.72;5054320;28;20032;-45
2023/08/10 05:18:16;;;;;;;11.55;3.55;;;;;;;20.11;58.03;98915.06;5036301;28;20029;-45
2023/08/10 05:20:41;;;;;;;9.00;3.15;;;;;;;20.88;56.24;98910.09;5054140;28;20055;-46
2023/08/10 05:23:07;;;;;;;10.57;3.28;;;;;;;21.85;54.48;98906.78;5036298;28;20021;-44
2023/08/10 05:25:33;;;;;;;15.85;3.75;;;;;;;23.29;50.88;98900.94;5036061;28;20116;-44
2023/08/10 05:27:58;;;;;;;12.23;3.28;;;;;;;23.98;47.36;98904.38;5054027;28;20090;-44
2023/08/10 05:30:24;;;;;;;9.82;3.15;;;;;;;23.59;47.57;98909.81;5036108;28;20037;-44
2023/08/10 05:32:49;;;;;;;9.60;3.63;;;;;;;23.21;48.68;98912.22;5053986;28;20027;-44
2023/08/10 05:35:15;;;;;;;9.20;3.28;;;;;;;23.04;48.85;98918.75;5035981;28;20102;-44
2023/08/10 05:37:41;;;;;;;10.55;3.63;;;;;;;23.15;49.06;98916.03;5036009;28;20074;-44
2023/08/10 05:40:09;;;;;;;7.80;3.55;;;;;;;23.47;47.65;98924.34;5053603;28;20029;-45
2023/08/10 05:42:40;;;;;;;6.35;3.58;;;;;;;23.64;46.97;98915.94;5053808;28;20494;-44
2023/08/10 05:45:06;;;;;;;7.82;3.30;;;;;;;24.26;46.19;98926.91;5035768;28;20024;-45
2023/08/10 05:47:36;;;;;;;6.43;2.95;;;;;;;25.28;43.73;98932.13;5035893;28;20031;-44
2023/08/10 05:50:03;;;;;;;9.18;3.67;;;;;;;25.90;42.43;98940.84;5053563;28;20033;-44
2023/08/10 05:52:29;;;;;;;11.50;3.83;;;;;;;26.65;41.41;98938.94;5053624;28;20502;-44
2023/08/10 05:54:55;;;;;;;18.05;3.50;;;;;;;27.54;39.30;98931.34;5035933;28;20093;-44
2023/08/10 05:57:21;;;;;;;16.15;3.45;;;;;;;28.04;38.49;98925.81;5035886;28;20057;-44
2023/08/10 05:59:47;;;;;;;28.70;4.95;;;;;;;28.47;38.04;98925.22;5035652;28;20032;-44
2023/08/10 06:02:13;;;;;;;14.68;3.88;;;;;;;29.16;36.72;98912.97;5053716;28;20021;-44
2023/08/10 06:04:45;;;;;;;66.80;6.50;;;;;;;29.95;35.24;98908.25;5053273;28;20021;-44
2023/08/10 06:07:11;;;;;;;108.07;9.60;;;;;;;30.24;34.46;98910.22;5053263;28;20029;-44
2023/08/10 06:09:38;;;;;;;54.75;6.93;;;;;;;30.80;33.93;98906.56;5053284;28;20052;-45
2023/08/10 06:12:06;;;;;;;37.75;5.25;;;;;;;31.38;32.55;98912.22;5052998;28;20103;-45
2023/08/10 06:14:32;;;;;;;13.65;3.85;;;;;;;31.98;31.58;98912.75;5053130;28;20499;-45
2023/08/10 06:16:57;;;;;;;38.60;6.40;;;;;;;32.82;30.60;98915.00;5035167;28;20025;-45
2023/08/10 06:19:23;;;;;;;41.30;5.95;;;;;;;33.34;29.62;98903.31;5035152;28;20163;-44
2023/08/10 06:21:50;;;;;;;96.00;10.80;;;;;;;33.59;29.26;98898.53;5052976;28;20021;-45
2023/08/10 06:24:16;;;;;;;71.80;7.68;;;;;;;33.64;29.05;98900.25;5053173;28;20021;-44
2023/08/10 06:26:42;;;;;;;73.18;7.57;;;;;;;33.02;29.50;98915.97;5052912;28;20036;-44
2023/08/10 06:29:08;;;;;;;81.78;7.82;;;;;;;32.67;30.44;98919.22;5052929;28;20016;-45
2023/08/10 06:31:35;;;;;;;96.18;10.40;;;;;;;32.98;29.82;98923.25;5034888;28;20491;-44
2023/08/10 06:34:02;;;;;;;132.73;12.73;;;;;;;33.56;29.17;98928.38;5052825;28;20178;-45
2023/08/10 06:36:28;;;;;;;79.03;9.35;;;;;;;33.95;28.14;98928.66;5052931;28;20044;-45
2023/08/10 06:38:54;;;;;;;41.47;5.53;;;;;;;34.35;27.97;98925.78;5034816;28;20040;-45
2023/08/10 06:41:21;;;;;;;20.70;5.72;;;;;;;34.69;27.08;98925.38;5052643;28;20024;-45
2023/08/10 06:43:47;;;;;;;25.08;5.68;;;;;;;34.17;27.14;98922.63;5052462;28;20043;-45
2023/08/10 06:46:12;;;;;;;26.67;4.85;;;;;;;33.22;28.00;98922.41;5034718;28;20017;-45
2023/08/10 06:48:38;;;;;;;21.20;4.40;;;;;;;32.00;29.55;98935.72;5034613;28;20039;-45
2023/08/10 06:51:04;;;;;;;25.15;5.20;;;;;;;30.59;31.69;98942.56;5052189;28;20405;-45
2023/08/10 06:53:31;;;;;;;32.47;5.43;;;;;;;29.64;33.29;98930.09;5052328;28;20107;-44
2023/08/10 06:55:57;;;;;;;14.77;3.95;;;;;;;29.32;34.14;98918.69;5052440;28;20104;-44
2023/08/10 06:58:23;;;;;;;16.65;4.28;;;;;;;28.99;34.96;98910.22;5034580;28;20131;-44
2023/08/10 07:00:48;;;;;;;12.32;4.07;;;;;;;29.06;35.27;98902.44;5052325;28;20028;-44
2023/08/10 07:03:14;;;;;;;17.98;4.80;;;;;;;29.90;34.48;98903.00;5052258;28;20487;-44
2023/08/10 07:05:43;;;;;;;13.23;4.13;;;;;;;30.88;32.96;98886.78;5052099;28;20063;-45
2023/08/10 07:08:09;;;;;;;13.43;4.00;;;;;;;31.42;32.07;98889.50;5052190;28;20091;-45
2023/08/10 07:10:35;;;;;;;15.73;3.90;;;;;;;31.56;31.52;98886.53;5033987;28;20036;-45
2023/08/10 07:13:01;;;;;;;13.05;4.18;;;;;;;31.60;31.69;98876.59;5052163;28;20028;-45
2023/08/10 07:15:28;;;;;;;30.42;6.00;;;;;;;31.46;31.75;98865.25;5052024;28;20032;-45
2023/08/10 07:17:54;;;;;;;9.80;3.55;;;;;;;30.53;32.46;98868.03;5052076;28;20039;-45
2023/08/10 07:20:20;;;;;;;12.52;4.50;;;;;;;29.52;34.53;98846.94;5052002;28;20060;-44
2023/08/10 07:22:47;;;;;;;12.45;4.38;;;;;;;29.44;34.57;98837.72;5051948;28;20075;-45
2023/08/10 07:25:13;;;;;;;9.90;3.85;;;;;;;29.35;34.92;98834.22;5051723;28;20109;-45
2023/08/10 07:27:39;;;;;;;11.45;4.35;;;;;;;29.32;34.98;98840.28;5051863;28;20104;-45
2023/08/10 07:30:05;;;;;;;7.18;3.90;;;;;;;29.79;34.30;98837.63;5017670;28;20086;-45
2023/08/10 07:32:31;;;;;;;13.98;4.25;;;;;;;30.53;33.67;98834.75;5051792;28;20574;-45
2023/08/10 07:34:57;;;;;;;20.35;5.20;;;;;;;31.40;32.43;98836.72;5033924;28;20112;-44
2023/08/10 07:37:23;;;;;;;10.63;4.47;;;;;;;32.14;31.36;98840.38;5051733;28;20396;-45
2023/08/10 07:39:48;;;;;;;17.10;4.45;;;;;;;32.92;30.27;98834.91;5051698;28;20087;-45
2023/08/10 07:42:14;;;;;;;32.42;5.00;;;;;;;34.41;28.29;98834.44;5051737;28;20029;-45
2023/08/10 07:44:40;;;;;;;39.80;6.18;;;;;;;34.94;27.61;98816.84;5051555;28;20017;-45
2023/08/10 07:47:06;;;;;;;141.30;12.82;;;;;;;35.67;26.68;98806.09;5051652;28;20398;-45
2023/08/10 07:49:34;;;;;;;90.57;10.00;;;;;;;35.40;26.55;98789.63;5051871;28;20096;-45
2023/08/10 07:52:00;;;;;;;40.97;6.13;;;;;;;35.56;26.63;98793.03;5051547;28;20032;-45
2023/08/10 07:54:26;;;;;;;22.60;4.70;;;;;;;35.95;26.02;98808.47;5051579;28;20158;-45
2023/08/10 07:56:52;;;;;;;17.48;4.50;;;;;;;35.22;26.65;98827.53;5033688;28;20040;-45
2023/08/10 07:59:17;;;;;;;149.70;12.40;;;;;;;34.22;28.30;98837.88;5033624;28;20029;-45
2023/08/10 08:01:43;;;;;;;136.70;11.40;;;;;;;34.53;28.19;98835.44;5051510;28;20048;-45
2023/08/10 08:04:09;;;;;;;162.30;14.90;;;;;;;35.84;27.09;98824.69;5036981;28;20517;-45
2023/08/10 08:06:38;;;;;;;33.28;5.97;;;;;;;37.16;25.02;98817.47;5037688;28;20021;-45
2023/08/10 08:09:06;;;;;;;221.13;15.00;;;;;;;37.58;24.04;98819.06;5055557;28;20221;-45
2023/08/10 08:11:32;;;;;;;28.25;4.70;;;;;;;38.28;23.82;98807.44;5055194;28;20049;-46
2023/08/10 08:13:58;;;;;;;16.98;4.07;;;;;;;38.91;22.81;98821.84;5055376;28;20029;-48
2023/08/10 08:16:24;;;;;;;26.33;4.85;;;;;;;39.23;22.79;98835.66;5055423;28;20375;-48
2023/08/10 08:18:57;;;;;;;24.95;4.05;;;;;;;39.19;22.20;98836.84;5055577;28;20048;-48
2023/08/10 08:21:26;;;;;;;17.85;3.65;;;;;;;38.19;22.86;98840.66;5055345;28;20060;-47
2023/08/10 08:23:52;;;;;;;9.70;3.45;;;;;;;37.05;24.48;98854.09;5055144;28;20032;-47
2023/08/10 08:26:20;;;;;;;14.00;3.47;;;;;;;36.42;24.73;98881.00;5055467;28;20028;-47
2023/08/10 08:28:46;;;;;;;37.92;4.75;;;;;;;36.04;25.91;98890.97;5037266;28;20048;-45
2023/08/10 08:31:13;;;;;;;16.60;3.30;;;;;;;35.48;26.03;98897.78;5037503;28;20025;-45
2023/08/10 08:33:39;;;;;;;15.15;3.88;;;;;;;35.05;26.45;98894.19;5055155;28;20383;-44
2023/08/10 08:36:09;;;;;;;24.83;3.47;;;;;;;34.58;26.76;98906.81;5055261;28;20028;-45
2023/08/10 08:38:36;;;;;;;31.08;4.30;;;;;;;34.28;27.43;98903.00;5055013;28;20037;-45
2023/08/10 08:41:11;;;;;;;25.38;4.20;;;;;;;34.52;27.38;98899.28;5054899;28;20099;-44
2023/08/10 08:43:38;;;;;;;14.48;3.42;;;;;;;35.47;26.53;98912.56;5037000;28;20091;-45
2023/08/10 08:46:06;;;;;;;24.70;4.57;;;;;;;36.40;25.71;98924.31;5036908;28;20021;-45
2023/08/10 08:48:33;;;;;;;12.60;3.55;;;;;;;37.94;23.99;98925.44;5054963;28;20032;-44
2023/08/10 08:50:59;;;;;;;18.33;4.05;;;;;;;39.12;22.44;98933.66;5036870;28;20028;-45
2023/08/10 08:53:25;;;;;;;14.45;3.72;;;;;;;39.77;21.39;98939.38;5054771;28;20468;-48
2023/08/10 08:55:50;;;;;;;12.95;4.20;;;;;;;40.66;20.53;98944.84;5054692;28;20039;-47
2023/08/10 08:58:18;;;;;;;20.55;3.78;;;;;;;41.68;19.04;98946.03;5020291;28;20028;-48
2023/08/10 09:00:49;;;;;;;23.38;4.57;;;;;;;42.38;18.61;98940.34;5036990;28;20410;-48
2023/08/10 09:03:20;;;;;;;15.85;3.95;;;;;;;42.58;18.02;98945.28;5036783;28;20521;-48
2023/08/10 09:05:47;;;;;;;15.15;2.60;;;;;;;42.19;18.33;98944.47;5036558;28;20083;-48
2023/08/10 09:08:17;;;;;;;12.68;2.72;;;;;;;41.66;19.05;98949.19;5054366;28;20394;-48
2023/08/10 09:10:47;;;;;;;10.35;3.25;;;;;;;41.51;18.50;98950.44;5054359;28;20469;-47
2023/08/10 09:13:19;;;;;;;9.90;2.30;;;;;;;41.01;19.08;98959.72;5036479;28;20037;-48
2023/08/10 09:15:45;;;;;;;13.77;3.10;;;;;;;41.04;18.82;98967.16;5054018;28;20025;-48
2023/08/10 09:18:11;;;;;;;6.38;2.33;;;;;;;40.60;19.28;98973.94;5036326;28;20475;-48
2023/08/10 09:20:37;;;;;;;8.23;2.50;;;;;;;40.33;19.68;98976.34;5054110;28;20025;-49
2023/08/10 09:23:03;;;;;;;16.92;3.03;;;;;;;40.48;19.58;98968.84;5054225;28;20485;-48
2023/08/10 09:25:38;;;;;;;14.00;2.83;;;;;;;40.35;20.00;98976.75;5054041;28;20494;-48
2023/08/10 09:28:08;;;;;;;39.33;5.38;;;;;;;40.29;20.45;98970.81;5054092;28;20025;-47
2023/08/10 09:30:34;;;;;;;13.13;4.40;;;;;;;40.00;20.75;98975.53;5054048;28;20025;-48
2023/08/10 09:33:00;;;;;;;25.13;4.45;;;;;;;39.86;20.68;98968.03;5019624;28;20032;-48
2023/08/10 09:35:30;;;;;;;16.95;4.20;;;;;;;39.82;20.88;98961.72;5036016;28;20163;-48
2023/08/10 09:38:01;;;;;;;21.55;4.50;;;;;;;39.77;20.82;98964.09;5053923;28;20052;-48
2023/08/10 09:40:27;;;;;;;22.60;4.55;;;;;;;39.43;21.27;98964.41;5053816;28;20036;-47
2023/08/10 09:42:53;;;;;;;23.30;5.43;;;;;;;39.41;20.94;98977.72;5053762;28;20033;-48
2023/08/10 09:45:19;;;;;;;30.35;6.15;;;;;;;39.21;21.48;98980.00;5053639;28;20414;-48
2023/08/10 09:47:45;;;;;;;17.33;4.78;;;;;;;38.88;22.28;98982.56;5035862;28;20029;-48
2023/08/10 09:50:12;;;;;;;18.30;7.00;;;;;;;38.68;21.97;98976.56;5035790;28;20017;-48
2023/08/10 09:52:40;;;;;;;26.73;6.00;;;;;;;38.16;23.05;98986.72;5053733;28;20028;-48
2023/08/10 09:55:08;;;;;;;20.13;4.68;;;;;;;37.96;22.87;98978.69;5053645;28;20021;-48
2023/08/10 09:57:40;;;;;;;16.65;4.15;;;;;;;38.50;23.04;98978.38;5035770;28;20517;-48
2023/08/10 10:00:14;;;;;;;17.17;3.25;;;;;;;38.44;22.22;98971.69;5053486;28;20029;-48
2023/08/10 10:02:39;;;;;;;;;;;;;;;38.11;22.70;98978.84;5037209;28;20517;-48
2023/08/10 10:05:06;;;;;;;18.17;3.22;;;;;;;37.83;23.50;98979.34;5053307;28;19956;-48
2023/08/10 10:07:32;;;;;;;6.22;2.30;;;;;;;37.81;23.14;98987.94;5053437;28;20017;-48
2023/08/10 10:09:59;;;;;;;9.48;2.92;;;;;;;38.20;22.86;98989.50;5035430;28;20029;-47
2023/08/10 10:12:26;;;;;;;10.32;3.10;;;;;;;38.30;22.71;98994.28;5052970;28;20045;-48
2023/08/10 10:14:52;;;;;;;15.95;3.13;;;;;;;38.43;22.75;98998.28;5035343;28;20495;-48
2023/08/10 10:17:19;;;;;;;14.93;2.50;;;;;;;38.33;22.72;99015.44;5035281;28;20032;-48
2023/08/10 10:19:48;;;;;;;8.48;2.60;;;;;;;38.52;22.49;99006.25;5053086;28;20571;-47
2023/08/10 10:22:17;;;;;;;6.60;2.10;;;;;;;38.53;22.85;99002.31;5052993;28;20090;-48
2023/08/10 10:24:43;;;;;;;16.20;3.05;;;;;;;38.36;22.54;98990.03;5035007;28;20402;-47
2023/08/10 10:27:11;;;;;;;10.98;2.08;;;;;;;38.38;21.86;98987.69;5051959;28;20057;-48
2023/08/10 10:29:52;;;;;;;7.68;2.17;;;;;;;38.23;22.45;98964.06;5035509;28;20394;-48
2023/08/10 10:32:20;;;;;;;13.57;2.80;;;;;;;38.00;22.53;98953.28;5052896;28;20033;-48
2023/08/10 10:34:47;;;;;;;5.75;1.73;;;;;;;37.72;22.38;98946.38;5034971;28;20512;-48
2023/08/10 10:37:14;;;;;;;14.38;2.67;;;;;;;37.34;23.20;98937.34;5018516;28;20386;-48
2023/08/10 10:39:46;;;;;;;8.60;2.08;;;;;;;36.46;23.98;98943.94;5035175;28;20037;-48
2023/08/10 10:42:12;;;;;;;6.47;2.00;;;;;;;35.14;25.96;98943.09;5034745;28;20111;-45
2023/08/10 10:45:14;;;;;;;3.63;2.17;;;;;;;34.27;26.90;98918.56;5052509;28;20164;-45
2023/08/10 10:47:50;;;;;;;13.68;3.22;;;;;;;33.32;29.33;98916.47;5052547;28;20079;-45
2023/08/10 10:50:25;;;;;;;5.90;1.88;;;;;;;33.38;27.96;98926.00;5052470;28;20033;-45
2023/08/10 10:52:56;;;;;;;12.23;2.25;;;;;;;33.64;27.93;98938.34;5034639;28;20389;-45
2023/08/10 10:55:26;;;;;;;10.07;2.05;;;;;;;34.21;27.56;98934.41;5034487;28;20039;-45
2023/08/10 10:57:53;;;;;;;18.45;2.30;;;;;;;34.65;27.77;98938.91;5034507;28;20441;-45
2023/08/10 11:00:21;;;;;;;3.35;2.28;;;;;;;35.38;27.24;98939.31;5034400;28;20483;-45
2023/08/10 11:02:47;;;;;;;41.72;11.75;;;;;;;36.36;26.20;98934.41;5052242;28;20017;-45
2023/08/10 11:05:14;;;;;;;21.40;5.45;;;;;;;37.87;23.83;98909.72;5052156;28;20502;-46
2023/08/10 11:07:51;;;;;;;18.63;5.45;;;;;;;39.45;22.09;98880.44;5052156;28;20048;-48
2023/08/10 11:10:19;;;;;;;8.25;4.95;;;;;;;40.23;20.70;98865.16;5052047;28;20025;-48
2023/08/10 11:12:48;;;;;;;21.85;5.95;;;;;;;40.88;19.98;98859.47;5051974;28;20489;-48
2023/08/10 11:15:15;;;;;;;15.52;6.10;;;;;;;40.59;20.04;98840.31;5052110;28;20028;-49
2023/08/10 11:17:49;;;;;;;11.20;6.63;;;;;;;39.62;20.82;98845.13;5034195;28;20147;-48
2023/08/10 11:20:17;;;;;;;19.08;6.72;;;;;;;38.52;21.96;98850.69;5051924;28;20036;-48
2023/08/10 11:22:43;;;;;;;19.10;6.97;;;;;;;37.71;23.01;98857.94;5034100;28;20394;-48
2023/08/10 11:25:17;;;;;;;17.02;7.32;;;;;;;37.46;23.28;98865.09;5017649;28;20134;-48
2023/08/10 11:27:45;;;;;;;40.13;12.85;;;;;;;36.73;24.67;98847.09;5051982;28;20483;-48
2023/08/10 11:30:13;;;;;;;22.02;9.00;;;;;;;36.75;24.85;98820.16;5052107;28;20025;-48